F/V Matmaco — FVNS — position and weather

sailwx.info

Track history (hours):
 
Tides and Currents Weather Stations Pressure Air Temp Water Temp Dewpoint Dewpoint Depression Visibility Wind Speed Wind Dir Waves Ship Positions

F/V Matmaco

Last reported at 2015-Jul-28 04:33 UTC. Time now 2015-Jul-28 17:49 UTC.
Position N 47°11' W 002°37'.

Length 20 m.

Type: Other ship. MMSI: 228194000.

Date/timePositionNaut miles runAvg speedWind from/ knotsBaromVisibWave heightAir tempDewpointWater temp
2015-Jul-28 04:33N 47°11' W 002°37'9 8.9
2015-Jul-28 03:32N 47°19' W 002°32'1 1.3
2015-Jul-28 02:33N 47°18' W 002°31'0 0.0
2015-Jul-28 01:33N 47°18' W 002°31'4 3.8
2015-Jul-28 00:33N 47°16' W 002°35'  
2015-Jul-25 00:29N 47°16' W 002°35'6 3.0
2015-Jul-24 22:32N 47°21' W 002°31'  
2015-Jul-22 05:19N 47°21' W 002°31'2 2.4
2015-Jul-22 04:26N 47°19' W 002°31'2 2.0
2015-Jul-22 03:32N 47°18' W 002°34'1 1.1
2015-Jul-22 02:33N 47°18' W 002°35'8 7.5
2015-Jul-22 01:33N 47°11' W 002°40'7 7.3
2015-Jul-22 00:33N 47°04' W 002°45'7 7.1
2015-Jul-21 23:33N 46°58' W 002°50'7 7.1
2015-Jul-21 22:33N 46°52' W 002°55'2 2.2
2015-Jul-21 21:33N 46°50' W 002°57'5 5.4
2015-Jul-21 20:33N 46°55' W 002°52'9 9.1
2015-Jul-21 19:33N 47°03' W 002°46'18 8.9
2015-Jul-21 17:33N 47°18' W 002°34'  
Track history (hours):
 
Tides and Currents Weather Stations Pressure Air Temp Water Temp Dewpoint Dewpoint Depression Visibility Wind Speed Wind Dir Waves Ship Positions

F/V Matmaco

Last reported at 2015-Jul-28 04:33 UTC. Time now 2015-Jul-28 17:49 UTC.
Position N 47°11' W 002°37'.

Length 20 m.

Type: Other ship. MMSI: 228194000.

Date/timePositionNaut miles runAvg speedWind from/ knotsBaromVisibWave heightAir tempDewpointWater temp
2015-Jul-28 04:33N 47°11' W 002°37'9 8.9
2015-Jul-28 03:32N 47°19' W 002°32'1 1.3
2015-Jul-28 02:33N 47°18' W 002°31'0 0.0
2015-Jul-28 01:33N 47°18' W 002°31'4 3.8
2015-Jul-28 00:33N 47°16' W 002°35'  
2015-Jul-25 00:29N 47°16' W 002°35'6 3.0
2015-Jul-24 22:32N 47°21' W 002°31'  
2015-Jul-22 05:19N 47°21' W 002°31'2 2.4
2015-Jul-22 04:26N 47°19' W 002°31'2 2.0
2015-Jul-22 03:32N 47°18' W 002°34'1 1.1
2015-Jul-22 02:33N 47°18' W 002°35'8 7.5
2015-Jul-22 01:33N 47°11' W 002°40'7 7.3
2015-Jul-22 00:33N 47°04' W 002°45'7 7.1
2015-Jul-21 23:33N 46°58' W 002°50'7 7.1
2015-Jul-21 22:33N 46°52' W 002°55'2 2.2
2015-Jul-21 21:33N 46°50' W 002°57'5 5.4
2015-Jul-21 20:33N 46°55' W 002°52'9 9.1
2015-Jul-21 19:33N 47°03' W 002°46'18 8.9
2015-Jul-21 17:33N 47°18' W 002°34'  

Dump ship's entire track history